createdAt,value
2022-08-17T00:01:26.290Z,25.51
2022-08-17T00:03:55.209Z,25.46
2022-08-17T00:06:24.447Z,25.45
2022-08-17T00:08:53.768Z,25.37
2022-08-17T00:11:22.590Z,25.34
2022-08-17T00:13:50.685Z,25.31
2022-08-17T00:16:55.480Z,25.29
2022-08-17T00:19:13.242Z,25.26
2022-08-17T00:22:29.583Z,25.20
2022-08-17T00:24:29.452Z,25.17
2022-08-17T00:26:58.685Z,25.12
2022-08-17T00:29:25.534Z,25.08
2022-08-17T00:31:52.428Z,25.04
2022-08-17T00:34:19.890Z,24.98
2022-08-17T00:36:46.927Z,24.97
2022-08-17T00:39:13.846Z,24.92
2022-08-17T00:41:42.486Z,24.84
2022-08-17T00:44:09.839Z,24.79
2022-08-17T00:46:39.388Z,24.75
2022-08-17T00:49:07.199Z,24.72
2022-08-17T00:51:37.196Z,24.65
2022-08-17T00:54:09.886Z,24.57
2022-08-17T00:56:39.802Z,24.52
2022-08-17T00:59:07.728Z,24.46
2022-08-17T01:01:34.732Z,24.44
2022-08-17T01:04:02.630Z,24.38
2022-08-17T01:06:29.769Z,24.33
2022-08-17T01:08:58.110Z,24.30
2022-08-17T01:11:26.117Z,24.25
2022-08-17T01:13:53.248Z,24.22
2022-08-17T01:16:28.378Z,24.19
2022-08-17T01:18:58.309Z,24.17
2022-08-17T01:21:43.785Z,24.14
2022-08-17T01:24:11.169Z,24.12
2022-08-17T01:26:39.248Z,24.11
2022-08-17T01:29:06.864Z,24.09
2022-08-17T01:31:45.640Z,24.07
2022-08-17T01:34:13.911Z,24.04
2022-08-17T01:36:42.487Z,24.05
2022-08-17T01:39:16.202Z,24.04
2022-08-17T01:41:45.054Z,23.99
2022-08-17T01:44:14.209Z,23.97
2022-08-17T01:46:41.055Z,23.96
2022-08-17T01:49:09.270Z,23.94
2022-08-17T01:51:36.534Z,23.89
2022-08-17T01:54:06.065Z,23.83
2022-08-17T01:56:34.489Z,23.78
2022-08-17T01:59:01.519Z,23.74
2022-08-17T02:01:30.260Z,23.69
2022-08-17T02:04:01.287Z,23.69
2022-08-17T02:06:29.648Z,23.67
2022-08-17T02:09:01.568Z,23.64
2022-08-17T02:11:32.223Z,23.63
2022-08-17T02:14:03.314Z,23.62
2022-08-17T02:16:37.431Z,23.58
2022-08-17T02:19:06.617Z,23.59
2022-08-17T02:21:33.872Z,23.54
2022-08-17T02:24:00.738Z,23.50
2022-08-17T02:26:28.006Z,23.46
2022-08-17T02:28:55.035Z,23.44
2022-08-17T02:31:21.927Z,23.42
2022-08-17T02:34:00.601Z,23.40
2022-08-17T02:36:31.889Z,23.41
2022-08-17T02:38:59.079Z,23.41
2022-08-17T02:41:25.904Z,23.39
2022-08-17T02:43:53.691Z,23.38
2022-08-17T02:46:20.979Z,23.37
2022-08-17T02:48:47.929Z,23.36
2022-08-17T02:51:15.009Z,23.34
2022-08-17T02:53:42.175Z,23.29
2022-08-17T02:56:09.048Z,23.27
2022-08-17T02:58:37.317Z,23.25
2022-08-17T03:01:05.549Z,23.23
2022-08-17T03:03:32.724Z,23.20
2022-08-17T03:06:01.810Z,23.15
2022-08-17T03:08:29.434Z,23.13
2022-08-17T03:10:56.363Z,23.06
2022-08-17T03:13:23.374Z,22.98
2022-08-17T03:15:51.761Z,22.95
2022-08-17T03:18:25.755Z,22.94
2022-08-17T03:20:58.275Z,22.90
2022-08-17T03:23:25.738Z,22.90
2022-08-17T03:25:55.621Z,22.90
2022-08-17T03:28:25.904Z,22.90
2022-08-17T03:30:53.150Z,22.84
2022-08-17T03:33:20.298Z,22.82
2022-08-17T03:35:47.402Z,22.78
2022-08-17T03:38:17.404Z,22.78
2022-08-17T03:40:57.810Z,22.81
2022-08-17T03:43:29.033Z,22.80
2022-08-17T03:46:28.201Z,22.78
2022-08-17T03:49:21.908Z,22.77
2022-08-17T03:52:07.434Z,22.77
2022-08-17T03:54:53.522Z,22.77
2022-08-17T03:57:20.537Z,22.77
2022-08-17T03:59:50.525Z,22.81
2022-08-17T04:02:18.991Z,22.83
2022-08-17T04:04:46.153Z,22.86
2022-08-17T04:07:13.433Z,22.86
2022-08-17T04:09:40.578Z,22.84
2022-08-17T04:12:07.489Z,22.81
2022-08-17T04:14:51.622Z,22.78
2022-08-17T04:17:25.835Z,22.78
2022-08-17T04:19:54.457Z,22.80
2022-08-17T04:22:31.882Z,22.83
2022-08-17T04:25:13.247Z,22.85
2022-08-17T04:27:40.407Z,22.87
2022-08-17T04:30:07.586Z,22.91
2022-08-17T04:33:05.406Z,22.97
2022-08-17T04:35:36.580Z,23.04
2022-08-17T04:38:03.975Z,23.09
2022-08-17T04:40:49.634Z,23.12
2022-08-17T04:43:18.756Z,23.15
2022-08-17T04:45:56.883Z,23.17
2022-08-17T04:48:35.267Z,23.18
2022-08-17T04:51:03.724Z,23.21
2022-08-17T04:53:31.194Z,23.21
2022-08-17T04:55:59.190Z,23.17
2022-08-17T04:58:26.173Z,23.19
2022-08-17T05:00:53.850Z,23.28
2022-08-17T05:03:20.700Z,23.36
2022-08-17T05:05:49.766Z,23.43
2022-08-17T05:08:18.677Z,23.47
2022-08-17T05:10:46.017Z,23.51
2022-08-17T05:13:15.656Z,23.54
2022-08-17T05:15:44.837Z,23.66
2022-08-17T05:18:12.308Z,23.74
2022-08-17T05:20:40.230Z,23.86
2022-08-17T05:23:08.568Z,23.99
2022-08-17T05:27:36.999Z,24.39
2022-08-17T05:30:04.464Z,24.86
2022-08-17T05:32:39.322Z,25.76
2022-08-17T05:35:07.661Z,27.34
2022-08-17T05:37:34.519Z,28.43
2022-08-17T05:40:01.491Z,28.59
2022-08-17T05:42:30.547Z,28.35
2022-08-17T05:44:58.767Z,28.26
2022-08-17T05:47:26.243Z,28.63
2022-08-17T05:49:53.875Z,29.42
2022-08-17T05:52:25.095Z,30.26
2022-08-17T05:54:51.920Z,31.41
2022-08-17T05:57:29.869Z,32.28
2022-08-17T05:59:56.643Z,33.17
2022-08-17T06:02:37.724Z,33.86
2022-08-17T06:05:23.442Z,34.59
2022-08-17T06:08:09.979Z,35.27
2022-08-17T06:10:42.641Z,35.91
2022-08-17T06:13:15.963Z,36.15
2022-08-17T06:16:04.683Z,36.41
2022-08-17T06:18:55.284Z,36.35
2022-08-17T06:21:23.782Z,35.80
2022-08-17T06:24:01.357Z,35.44
2022-08-17T06:26:38.538Z,35.24
2022-08-17T06:29:18.559Z,35.41
2022-08-17T06:31:45.953Z,35.81
2022-08-17T06:34:13.300Z,36.22
2022-08-17T06:36:59.321Z,36.49
2022-08-17T06:39:29.689Z,36.64
2022-08-17T06:42:03.379Z,36.68
2022-08-17T06:44:43.583Z,36.09
2022-08-17T06:47:37.177Z,35.96
2022-08-17T06:50:23.515Z,35.55
2022-08-17T06:53:05.321Z,35.76
2022-08-17T06:55:44.305Z,36.16
2022-08-17T06:58:16.423Z,36.41
2022-08-17T07:00:47.254Z,36.71
2022-08-17T07:03:15.554Z,36.93
2022-08-17T07:05:44.405Z,36.98
2022-08-17T07:08:35.217Z,36.77
2022-08-17T07:11:05.007Z,36.94
2022-08-17T07:13:32.122Z,37.01
2022-08-17T07:16:04.717Z,37.09
2022-08-17T07:18:33.290Z,37.07
2022-08-17T07:21:08.539Z,37.19
2022-08-17T07:23:40.927Z,37.28
2022-08-17T07:26:08.961Z,37.35
2022-08-17T07:28:36.162Z,37.36
2022-08-17T07:31:04.720Z,37.29
2022-08-17T07:33:33.141Z,36.90
2022-08-17T07:36:01.674Z,36.89
2022-08-17T07:38:29.740Z,36.96
2022-08-17T07:41:03.589Z,37.01
2022-08-17T07:43:34.109Z,36.72
2022-08-17T07:46:34.807Z,36.66
2022-08-17T07:49:07.693Z,36.39
2022-08-17T07:51:37.482Z,36.01
2022-08-17T07:54:24.893Z,35.98
2022-08-17T07:56:53.162Z,36.20
2022-08-17T07:59:23.605Z,36.34
2022-08-17T08:01:58.121Z,36.53
2022-08-17T08:04:59.204Z,36.61
2022-08-17T08:07:26.570Z,36.42
2022-08-17T08:09:59.904Z,36.22
2022-08-17T08:12:39.891Z,36.22
2022-08-17T08:15:17.764Z,36.36
2022-08-17T08:17:47.721Z,36.53
2022-08-17T08:20:40.854Z,36.67
2022-08-17T08:23:04.804Z,36.57
2022-08-17T08:25:53.622Z,36.48
2022-08-17T08:28:20.618Z,36.47
2022-08-17T08:30:50.453Z,36.36
2022-08-17T08:33:23.205Z,36.39
2022-08-17T08:35:54.071Z,36.40
2022-08-17T08:38:33.033Z,36.39
2022-08-17T08:41:19.327Z,36.37
2022-08-17T08:44:04.979Z,36.28
2022-08-17T08:46:50.615Z,36.29
2022-08-17T08:49:17.430Z,36.06
2022-08-17T08:51:55.751Z,35.87
2022-08-17T08:54:31.763Z,35.91
2022-08-17T08:57:30.858Z,35.91
2022-08-17T09:00:00.560Z,35.82
2022-08-17T09:02:34.589Z,35.75
2022-08-17T09:05:37.635Z,35.63
2022-08-17T09:08:23.433Z,35.60
2022-08-17T09:10:56.852Z,35.66
2022-08-17T09:13:26.900Z,35.55
2022-08-17T09:15:59.041Z,35.34
2022-08-17T09:19:01.333Z,35.23
2022-08-17T09:21:18.210Z,35.31
2022-08-17T09:23:45.568Z,35.40
2022-08-17T09:26:17.082Z,35.26
2022-08-17T09:28:46.716Z,35.25
2022-08-17T09:31:16.853Z,35.21
2022-08-17T09:33:48.127Z,35.19
2022-08-17T09:36:31.321Z,35.19
2022-08-17T09:38:58.450Z,35.20
2022-08-17T09:41:49.244Z,35.20
2022-08-17T09:44:23.698Z,34.98
2022-08-17T09:46:55.644Z,34.82
2022-08-17T09:49:54.605Z,34.83
2022-08-17T09:52:23.927Z,34.76
2022-08-17T09:54:52.481Z,34.67
2022-08-17T09:57:31.345Z,34.47
2022-08-17T10:00:11.657Z,34.35
2022-08-17T10:02:54.550Z,34.42
2022-08-17T10:05:46.511Z,34.35
2022-08-17T10:08:16.726Z,34.21
2022-08-17T10:10:56.466Z,33.92
2022-08-17T10:13:34.403Z,33.57
2022-08-17T10:16:04.167Z,33.22
2022-08-17T10:18:49.709Z,32.99
2022-08-17T10:21:36.693Z,32.82
2022-08-17T10:24:28.646Z,32.72
2022-08-17T10:26:57.695Z,32.70
2022-08-17T10:29:28.843Z,32.64
2022-08-17T10:32:00.775Z,32.60
2022-08-17T10:34:41.911Z,32.60
2022-08-17T10:37:14.118Z,32.59
2022-08-17T10:39:57.431Z,32.56
2022-08-17T10:42:46.183Z,32.52
2022-08-17T10:45:19.244Z,32.47
2022-08-17T10:47:55.346Z,32.44
2022-08-17T10:50:47.573Z,32.52
2022-08-17T10:53:48.591Z,32.47
2022-08-17T10:56:18.859Z,32.52
2022-08-17T10:58:55.369Z,32.51
2022-08-17T11:01:29.647Z,32.47
2022-08-17T11:03:58.058Z,32.51
2022-08-17T11:06:31.154Z,32.51
2022-08-17T11:08:58.421Z,32.56
2022-08-17T11:11:35.970Z,32.59
2022-08-17T11:14:04.660Z,32.66
2022-08-17T11:16:32.630Z,32.60
2022-08-17T11:19:08.652Z,32.58
2022-08-17T11:21:39.353Z,32.50
2022-08-17T11:24:24.809Z,32.55
2022-08-17T11:27:07.695Z,32.62
2022-08-17T11:29:53.682Z,32.71
2022-08-17T11:32:54.811Z,32.73
2022-08-17T11:35:22.173Z,32.72
2022-08-17T11:38:15.849Z,32.76
2022-08-17T11:41:02.055Z,32.77
2022-08-17T11:43:42.982Z,32.81
2022-08-17T11:46:09.891Z,32.92
2022-08-17T11:49:04.958Z,32.96
2022-08-17T11:51:50.670Z,32.88
2022-08-17T11:54:34.464Z,32.77
2022-08-17T11:57:21.897Z,32.72
2022-08-17T11:59:52.069Z,32.76
2022-08-17T12:02:31.775Z,32.65
2022-08-17T12:05:02.634Z,32.63
2022-08-17T12:07:32.824Z,32.66
2022-08-17T12:10:00.638Z,32.58
2022-08-17T12:12:33.189Z,32.59
2022-08-17T12:15:16.716Z,32.57
2022-08-17T12:17:51.244Z,32.50
2022-08-17T12:20:23.457Z,32.44
2022-08-17T12:22:53.571Z,32.43
2022-08-17T12:25:26.264Z,32.44
2022-08-17T12:28:06.825Z,32.47
2022-08-17T12:30:37.464Z,32.47
2022-08-17T12:33:10.983Z,32.46
2022-08-17T12:35:39.077Z,32.50
2022-08-17T12:38:26.690Z,32.52
2022-08-17T12:40:57.915Z,32.46
2022-08-17T12:43:27.556Z,32.46
2022-08-17T12:45:59.578Z,32.43
2022-08-17T12:48:28.082Z,32.46
2022-08-17T12:51:02.537Z,32.46
2022-08-17T12:53:31.068Z,32.50
2022-08-17T12:55:59.865Z,32.55
2022-08-17T12:58:32.998Z,32.61
2022-08-17T13:01:09.598Z,32.64
2022-08-17T13:03:59.880Z,32.70
2022-08-17T13:06:33.200Z,32.68
2022-08-17T13:09:11.409Z,32.68
2022-08-17T13:11:46.394Z,32.63
2022-08-17T13:14:14.457Z,32.62
2022-08-17T13:16:47.297Z,32.65
2022-08-17T13:19:16.075Z,32.64
2022-08-17T13:21:48.170Z,32.66
2022-08-17T13:24:17.135Z,32.61
2022-08-17T13:26:45.772Z,32.58
2022-08-17T13:29:24.940Z,32.58
2022-08-17T13:32:13.472Z,32.59
2022-08-17T13:34:50.235Z,32.62
2022-08-17T13:37:31.010Z,32.66
2022-08-17T13:40:10.224Z,32.69
2022-08-17T13:42:54.536Z,32.65
2022-08-17T13:45:35.024Z,32.62
2022-08-17T13:48:20.085Z,32.58
2022-08-17T13:50:59.636Z,32.57
2022-08-17T13:53:37.204Z,32.59
2022-08-17T13:56:31.748Z,32.62
2022-08-17T13:59:06.244Z,32.64
2022-08-17T14:01:42.005Z,32.63
2022-08-17T14:04:13.554Z,32.68
2022-08-17T14:06:52.426Z,32.72
2022-08-17T14:09:22.697Z,32.77
2022-08-17T14:11:50.055Z,32.77
2022-08-17T14:14:17.100Z,32.79
2022-08-17T14:16:44.567Z,32.75
2022-08-17T14:19:12.783Z,32.76
2022-08-17T14:21:40.672Z,32.74
2022-08-17T14:24:09.143Z,32.78
2022-08-17T14:26:36.170Z,32.82
2022-08-17T14:29:03.053Z,32.82
2022-08-17T14:31:35.385Z,32.82
2022-08-17T14:34:04.995Z,32.80
2022-08-17T14:36:32.265Z,32.81
2022-08-17T14:38:59.318Z,32.83
2022-08-17T14:41:26.248Z,32.84
2022-08-17T14:43:53.896Z,32.85
2022-08-17T14:46:20.938Z,32.86
2022-08-17T14:48:51.728Z,32.87
2022-08-17T14:51:22.545Z,32.86
2022-08-17T14:53:50.131Z,32.86
2022-08-17T14:56:16.954Z,32.84
2022-08-17T14:58:44.208Z,32.80
2022-08-17T15:01:14.332Z,32.80
2022-08-17T15:03:41.662Z,32.81
2022-08-17T15:06:14.637Z,32.77
2022-08-17T15:08:43.981Z,32.77
2022-08-17T15:11:14.792Z,32.74
2022-08-17T15:13:53.082Z,32.71
2022-08-17T15:16:20.754Z,32.69
2022-08-17T15:18:48.288Z,32.69
2022-08-17T15:21:15.946Z,32.74
2022-08-17T15:23:43.211Z,32.75
2022-08-17T15:26:11.183Z,32.72
2022-08-17T15:28:38.106Z,32.69
2022-08-17T15:31:06.692Z,32.68
2022-08-17T15:33:36.307Z,32.63
2022-08-17T15:36:04.961Z,32.66
2022-08-17T15:38:39.219Z,32.65
2022-08-17T15:41:08.820Z,32.62
2022-08-17T15:43:36.490Z,32.60
2022-08-17T15:46:10.507Z,32.58
2022-08-17T15:48:44.781Z,32.59
2022-08-17T15:51:11.718Z,32.57
2022-08-17T15:53:39.572Z,32.56
2022-08-17T15:56:07.012Z,32.52
2022-08-17T15:58:34.738Z,32.50
2022-08-17T16:01:16.550Z,32.46
2022-08-17T16:04:01.472Z,32.45
2022-08-17T16:06:32.111Z,32.41
2022-08-17T16:09:00.334Z,32.39
2022-08-17T16:11:27.181Z,32.34
2022-08-17T16:13:55.089Z,32.32
2022-08-17T16:16:24.061Z,32.31
2022-08-17T16:18:56.327Z,32.29
2022-08-17T16:21:27.323Z,32.29
2022-08-17T16:24:02.741Z,32.27
2022-08-17T16:26:30.705Z,32.24
2022-08-17T16:28:58.462Z,32.19
2022-08-17T16:31:25.910Z,32.15
2022-08-17T16:33:58.454Z,32.10
2022-08-17T16:36:40.384Z,32.08
2022-08-17T16:39:07.670Z,32.05
2022-08-17T16:41:44.443Z,32.00
2022-08-17T16:44:15.500Z,31.96
2022-08-17T16:46:45.866Z,31.93
2022-08-17T16:49:24.492Z,31.91
2022-08-17T16:52:03.035Z,31.90
2022-08-17T16:54:30.368Z,31.88
2022-08-17T16:56:58.538Z,31.86
2022-08-17T16:59:31.165Z,31.81
2022-08-17T17:02:11.037Z,31.73
2022-08-17T17:04:42.140Z,31.61
2022-08-17T17:07:28.391Z,31.53
2022-08-17T17:09:56.591Z,31.43
2022-08-17T17:12:38.152Z,31.36
2022-08-17T17:15:11.913Z,31.28
2022-08-17T17:17:39.881Z,31.25
2022-08-17T17:20:10.188Z,31.18
2022-08-17T17:22:47.989Z,31.14
2022-08-17T17:25:24.562Z,31.06
2022-08-17T17:28:02.501Z,30.98
2022-08-17T17:30:33.205Z,30.89
2022-08-17T17:33:11.054Z,30.83
2022-08-17T17:35:53.685Z,30.77
2022-08-17T17:38:29.448Z,30.72
2022-08-17T17:41:02.147Z,30.68
2022-08-17T17:43:40.353Z,30.63
2022-08-17T17:46:28.560Z,30.60
2022-08-17T17:48:59.665Z,30.52
2022-08-17T17:52:03.617Z,30.43
2022-08-17T17:54:32.835Z,30.32
2022-08-17T17:57:07.328Z,30.22
2022-08-17T17:59:44.264Z,30.14
2022-08-17T18:02:37.624Z,30.06
2022-08-17T18:05:14.139Z,29.97
2022-08-17T18:07:44.515Z,29.87
2022-08-17T18:10:29.275Z,29.78
2022-08-17T18:13:18.031Z,29.70
2022-08-17T18:15:51.310Z,29.64
2022-08-17T18:18:18.725Z,29.56
2022-08-17T18:20:53.744Z,29.51
2022-08-17T18:23:28.211Z,29.44
2022-08-17T18:25:57.106Z,29.36
2022-08-17T18:28:30.340Z,29.30
2022-08-17T18:31:06.305Z,29.24
2022-08-17T18:33:34.050Z,29.18
2022-08-17T18:36:01.582Z,29.09
2022-08-17T18:38:36.038Z,29.02
2022-08-17T18:41:03.170Z,28.95
2022-08-17T18:43:43.866Z,28.89
2022-08-17T18:46:28.219Z,28.81
2022-08-17T18:48:59.304Z,28.74
2022-08-17T18:51:42.000Z,28.66
2022-08-17T18:54:13.177Z,28.60
2022-08-17T18:56:41.810Z,28.54
2022-08-17T18:59:27.094Z,28.52
2022-08-17T19:02:05.066Z,28.45
2022-08-17T19:04:39.897Z,28.42
2022-08-17T19:07:10.252Z,28.36
2022-08-17T19:09:40.718Z,28.33
2022-08-17T19:12:09.411Z,28.26
2022-08-17T19:14:36.693Z,28.22
2022-08-17T19:17:11.639Z,28.18
2022-08-17T19:19:39.325Z,28.11
2022-08-17T19:22:17.017Z,28.09
2022-08-17T19:25:02.911Z,28.07
2022-08-17T19:27:42.005Z,28.03
2022-08-17T19:30:25.202Z,27.97
2022-08-17T19:32:53.256Z,27.88
2022-08-17T19:35:22.338Z,27.83
2022-08-17T19:37:56.609Z,27.76
2022-08-17T19:40:48.962Z,27.74
2022-08-17T19:43:18.059Z,27.69
2022-08-17T19:46:14.767Z,27.66
2022-08-17T19:48:48.412Z,27.63
2022-08-17T19:51:17.925Z,27.60
2022-08-17T19:54:04.881Z,27.56
2022-08-17T19:56:44.844Z,27.54
2022-08-17T19:59:15.803Z,27.54
2022-08-17T20:01:45.941Z,27.52
2022-08-17T20:04:15.797Z,27.46
2022-08-17T20:06:43.813Z,27.40
2022-08-17T20:09:14.957Z,27.35
2022-08-17T20:11:53.087Z,27.30
2022-08-17T20:14:21.150Z,27.27
2022-08-17T20:16:48.401Z,27.19
2022-08-17T20:19:29.170Z,27.13
2022-08-17T20:21:57.647Z,27.07
2022-08-17T20:24:39.695Z,27.04
2022-08-17T20:27:18.936Z,26.99
2022-08-17T20:29:59.613Z,26.97
2022-08-17T20:32:28.507Z,26.95
2022-08-17T20:35:04.503Z,26.90
2022-08-17T20:37:33.993Z,26.87
2022-08-17T20:40:01.081Z,26.85
2022-08-17T20:42:29.392Z,26.83
2022-08-17T20:44:59.316Z,26.83
2022-08-17T20:47:28.988Z,26.81
2022-08-17T20:50:07.100Z,26.77
2022-08-17T20:52:41.468Z,26.69
2022-08-17T20:55:09.579Z,26.66
2022-08-17T20:57:36.962Z,26.62
2022-08-17T21:00:16.735Z,26.59
2022-08-17T21:02:45.581Z,26.56
2022-08-17T21:05:32.418Z,26.55
2022-08-17T21:08:13.198Z,26.54
2022-08-17T21:10:41.411Z,26.52
2022-08-17T21:13:08.479Z,26.51
2022-08-17T21:15:41.291Z,26.42
2022-08-17T21:18:14.469Z,26.38
2022-08-17T21:21:00.413Z,26.35
2022-08-17T21:23:36.425Z,26.33
2022-08-17T21:26:03.237Z,26.32
2022-08-17T21:29:00.709Z,26.32
2022-08-17T21:31:34.278Z,26.31
2022-08-17T21:34:16.817Z,26.30
2022-08-17T21:36:45.142Z,26.28
2022-08-17T21:39:13.319Z,26.27
2022-08-17T21:41:54.439Z,26.28
2022-08-17T21:44:30.587Z,26.25
2022-08-17T21:47:12.349Z,26.23
2022-08-17T21:49:39.766Z,26.22
2022-08-17T21:52:07.161Z,26.22
2022-08-17T21:54:35.785Z,26.18
2022-08-17T21:57:04.414Z,26.16
2022-08-17T21:59:36.715Z,26.13
2022-08-17T22:02:06.310Z,26.13
2022-08-17T22:04:34.564Z,26.11
2022-08-17T22:07:03.282Z,26.06
2022-08-17T22:09:33.439Z,25.98
2022-08-17T22:12:03.297Z,25.90
2022-08-17T22:14:53.027Z,25.82
2022-08-17T22:17:23.200Z,25.73
2022-08-17T22:19:51.566Z,25.69
2022-08-17T22:22:21.168Z,25.67
2022-08-17T22:24:55.467Z,25.65
2022-08-17T22:27:43.266Z,25.61
2022-08-17T22:30:18.410Z,25.58
2022-08-17T22:32:46.662Z,25.54
2022-08-17T22:35:32.652Z,25.51
2022-08-17T22:41:15.177Z,25.42
2022-08-17T22:43:43.778Z,25.36
2022-08-17T22:46:12.540Z,25.33
2022-08-17T22:48:45.821Z,25.32
2022-08-17T22:51:14.218Z,25.32
2022-08-17T22:54:08.103Z,25.33
2022-08-17T22:56:53.891Z,25.33
2022-08-17T22:59:39.636Z,25.33
2022-08-17T23:02:11.842Z,25.32
2022-08-17T23:04:40.984Z,25.31
2022-08-17T23:07:08.425Z,25.33
2022-08-17T23:09:35.982Z,25.32
2022-08-17T23:12:05.959Z,25.28
2022-08-17T23:14:36.845Z,25.27
2022-08-17T23:17:04.500Z,25.29
2022-08-17T23:19:31.816Z,25.29
2022-08-17T23:21:59.782Z,25.31
2022-08-17T23:24:27.862Z,25.33
2022-08-17T23:26:57.144Z,25.36
2022-08-17T23:29:24.978Z,25.36
2022-08-17T23:31:52.409Z,25.35
2022-08-17T23:34:19.439Z,25.34
2022-08-17T23:36:51.319Z,25.32
2022-08-17T23:39:24.693Z,25.36
2022-08-17T23:41:57.383Z,25.35
2022-08-17T23:44:24.288Z,25.36
2022-08-17T23:46:51.775Z,25.38
2022-08-17T23:49:19.247Z,25.40
2022-08-17T23:51:47.819Z,25.42
2022-08-17T23:54:23.895Z,25.41
2022-08-17T23:56:51.071Z,25.40
2022-08-17T23:59:18.971Z,25.40
